sensor_id;sensor_type;location;lat;lon;timestamp;P1;durP1;ratioP1;P2;durP2;ratioP2
16634;SDS011;8431;52.458;9.998;2023-05-02T19:35:20;3.13;;;2.83;;
16634;SDS011;8431;52.458;9.998;2023-05-02T19:37:48;3.20;;;3.00;;
16634;SDS011;8431;52.458;9.998;2023-05-02T19:42:46;3.20;;;3.00;;
16634;SDS011;8431;52.458;9.998;2023-05-02T19:45:13;3.88;;;3.25;;
16634;SDS011;8431;52.458;9.998;2023-05-02T19:47:40;3.58;;;3.05;;
16634;SDS011;8431;52.458;9.998;2023-05-02T19:50:11;4.43;;;3.17;;
16634;SDS011;8431;52.458;9.998;2023-05-02T19:52:41;4.93;;;3.28;;
16634;SDS011;8431;52.458;9.998;2023-05-02T19:55:09;3.45;;;3.15;;
16634;SDS011;8431;52.458;9.998;2023-05-02T19:57:42;3.55;;;3.35;;
16634;SDS011;8431;52.458;9.998;2023-05-02T20:00:10;3.55;;;2.85;;
16634;SDS011;8431;52.458;9.998;2023-05-02T20:02:38;7.40;;;3.55;;
16634;SDS011;8431;52.458;9.998;2023-05-02T20:05:05;4.93;;;2.95;;
16634;SDS011;8431;52.458;9.998;2023-05-02T20:07:33;3.67;;;3.33;;
16634;SDS011;8431;52.458;9.998;2023-05-02T20:10:01;3.30;;;3.00;;
16634;SDS011;8431;52.458;9.998;2023-05-02T20:12:28;3.65;;;3.28;;
16634;SDS011;8431;52.458;9.998;2023-05-02T20:14:57;4.15;;;3.75;;
16634;SDS011;8431;52.458;9.998;2023-05-02T20:17:24;3.40;;;3.20;;
16634;SDS011;8431;52.458;9.998;2023-05-02T20:19:51;3.58;;;3.28;;
16634;SDS011;8431;52.458;9.998;2023-05-02T20:22:19;3.40;;;3.08;;
16634;SDS011;8431;52.458;9.998;2023-05-02T20:24:46;3.60;;;3.00;;
16634;SDS011;8431;52.458;9.998;2023-05-02T20:27:15;4.50;;;3.30;;
16634;SDS011;8431;52.458;9.998;2023-05-02T20:29:42;4.85;;;3.40;;
16634;SDS011;8431;52.458;9.998;2023-05-02T20:32:08;3.53;;;3.33;;
16634;SDS011;8431;52.458;9.998;2023-05-02T20:34:38;3.53;;;3.22;;
16634;SDS011;8431;52.458;9.998;2023-05-02T20:37:05;4.03;;;3.70;;
16634;SDS011;8431;52.458;9.998;2023-05-02T20:39:34;3.97;;;3.78;;
16634;SDS011;8431;52.458;9.998;2023-05-02T20:42:02;4.72;;;3.70;;
16634;SDS011;8431;52.458;9.998;2023-05-02T20:44:31;4.50;;;3.88;;
16634;SDS011;8431;52.458;9.998;2023-05-02T20:46:58;6.32;;;3.60;;
16634;SDS011;8431;52.458;9.998;2023-05-02T20:49:26;4.65;;;3.80;;
16634;SDS011;8431;52.458;9.998;2023-05-02T20:51:56;5.45;;;3.72;;
16634;SDS011;8431;52.458;9.998;2023-05-02T20:54:23;5.32;;;3.88;;
16634;SDS011;8431;52.458;9.998;2023-05-02T20:56:51;3.60;;;3.30;;
16634;SDS011;8431;52.458;9.998;2023-05-02T20:59:24;6.65;;;3.65;;
16634;SDS011;8431;52.458;9.998;2023-05-02T21:01:56;3.65;;;3.42;;
16634;SDS011;8431;52.458;9.998;2023-05-02T21:04:23;3.80;;;3.47;;
16634;SDS011;8431;52.458;9.998;2023-05-02T21:06:51;6.20;;;3.72;;
16634;SDS011;8431;52.458;9.998;2023-05-02T21:09:21;4.90;;;3.67;;
16634;SDS011;8431;52.458;9.998;2023-05-02T21:11:49;7.53;;;4.30;;
16634;SDS011;8431;52.458;9.998;2023-05-02T21:14:17;7.28;;;3.92;;
16634;SDS011;8431;52.458;9.998;2023-05-02T21:16:46;4.15;;;3.85;;
16634;SDS011;8431;52.458;9.998;2023-05-02T21:19:20;5.00;;;4.00;;
16634;SDS011;8431;52.458;9.998;2023-05-02T21:21:51;4.15;;;3.85;;
16634;SDS011;8431;52.458;9.998;2023-05-02T21:24:26;3.83;;;3.60;;
16634;SDS011;8431;52.458;9.998;2023-05-02T21:26:56;5.80;;;4.13;;
16634;SDS011;8431;52.458;9.998;2023-05-02T21:29:25;4.70;;;3.60;;
16634;SDS011;8431;52.458;9.998;2023-05-02T21:32:16;3.75;;;3.50;;
16634;SDS011;8431;52.458;9.998;2023-05-02T21:34:55;4.55;;;4.13;;
16634;SDS011;8431;52.458;9.998;2023-05-02T21:37:25;6.57;;;3.97;;
16634;SDS011;8431;52.458;9.998;2023-05-02T21:39:55;6.00;;;3.83;;
16634;SDS011;8431;52.458;9.998;2023-05-02T21:42:23;4.47;;;3.75;;
16634;SDS011;8431;52.458;9.998;2023-05-02T21:44:51;5.25;;;3.95;;
16634;SDS011;8431;52.458;9.998;2023-05-02T21:47:19;7.97;;;5.30;;
16634;SDS011;8431;52.458;9.998;2023-05-02T21:49:46;5.07;;;3.95;;
16634;SDS011;8431;52.458;9.998;2023-05-02T21:52:16;4.10;;;3.80;;
16634;SDS011;8431;52.458;9.998;2023-05-02T21:54:44;4.45;;;3.90;;
16634;SDS011;8431;52.458;9.998;2023-05-02T21:57:18;4.90;;;4.40;;
16634;SDS011;8431;52.458;9.998;2023-05-02T21:59:55;4.20;;;3.90;;
16634;SDS011;8431;52.458;9.998;2023-05-02T22:02:22;4.32;;;4.03;;
16634;SDS011;8431;52.458;9.998;2023-05-02T22:04:50;4.55;;;4.18;;
16634;SDS011;8431;52.458;9.998;2023-05-02T22:07:20;3.67;;;3.47;;
16634;SDS011;8431;52.458;9.998;2023-05-02T22:09:48;4.50;;;4.18;;
16634;SDS011;8431;52.458;9.998;2023-05-02T22:12:18;4.63;;;4.28;;
16634;SDS011;8431;52.458;9.998;2023-05-02T22:14:48;4.45;;;4.00;;
16634;SDS011;8431;52.458;9.998;2023-05-02T22:17:17;4.18;;;3.78;;
16634;SDS011;8431;52.458;9.998;2023-05-02T22:19:47;6.55;;;4.28;;
16634;SDS011;8431;52.458;9.998;2023-05-02T22:22:15;4.80;;;4.03;;
16634;SDS011;8431;52.458;9.998;2023-05-02T22:24:45;6.82;;;4.05;;
16634;SDS011;8431;52.458;9.998;2023-05-02T22:27:16;4.53;;;4.13;;
16634;SDS011;8431;52.458;9.998;2023-05-02T22:29:47;4.50;;;3.97;;
16634;SDS011;8431;52.458;9.998;2023-05-02T22:32:16;4.03;;;3.67;;
16634;SDS011;8431;52.458;9.998;2023-05-02T22:34:43;4.38;;;4.00;;
16634;SDS011;8431;52.458;9.998;2023-05-02T22:37:11;4.18;;;3.67;;
16634;SDS011;8431;52.458;9.998;2023-05-02T22:39:40;6.78;;;4.07;;
16634;SDS011;8431;52.458;9.998;2023-05-02T22:42:08;4.60;;;4.20;;
16634;SDS011;8431;52.458;9.998;2023-05-02T22:44:39;4.70;;;4.25;;
16634;SDS011;8431;52.458;9.998;2023-05-02T22:47:10;5.95;;;4.82;;
16634;SDS011;8431;52.458;9.998;2023-05-02T22:49:38;8.20;;;4.53;;
16634;SDS011;8431;52.458;9.998;2023-05-02T22:52:07;5.75;;;4.13;;
16634;SDS011;8431;52.458;9.998;2023-05-02T22:54:35;4.53;;;4.13;;
16634;SDS011;8431;52.458;9.998;2023-05-02T22:57:02;6.13;;;4.30;;
16634;SDS011;8431;52.458;9.998;2023-05-02T22:59:31;4.40;;;4.10;;
16634;SDS011;8431;52.458;9.998;2023-05-02T23:01:59;4.63;;;4.22;;
16634;SDS011;8431;52.458;9.998;2023-05-02T23:04:26;5.22;;;4.82;;
16634;SDS011;8431;52.458;9.998;2023-05-02T23:06:57;5.38;;;4.18;;
16634;SDS011;8431;52.458;9.998;2023-05-02T23:09:24;8.05;;;4.35;;
16634;SDS011;8431;52.458;9.998;2023-05-02T23:11:51;4.35;;;3.97;;
16634;SDS011;8431;52.458;9.998;2023-05-02T23:14:18;4.50;;;4.10;;
16634;SDS011;8431;52.458;9.998;2023-05-02T23:16:48;4.63;;;4.32;;
16634;SDS011;8431;52.458;9.998;2023-05-02T23:19:17;5.85;;;4.55;;
16634;SDS011;8431;52.458;9.998;2023-05-02T23:21:44;4.45;;;4.05;;
16634;SDS011;8431;52.458;9.998;2023-05-02T23:24:12;4.40;;;4.03;;
16634;SDS011;8431;52.458;9.998;2023-05-02T23:26:39;4.95;;;4.32;;
16634;SDS011;8431;52.458;9.998;2023-05-02T23:29:06;4.47;;;4.18;;
16634;SDS011;8431;52.458;9.998;2023-05-02T23:31:33;5.05;;;4.53;;
16634;SDS011;8431;52.458;9.998;2023-05-02T23:34:01;5.00;;;4.47;;
16634;SDS011;8431;52.458;9.998;2023-05-02T23:36:29;4.80;;;4.40;;
16634;SDS011;8431;52.458;9.998;2023-05-02T23:38:57;4.78;;;4.35;;
16634;SDS011;8431;52.458;9.998;2023-05-02T23:41:24;6.40;;;4.32;;
16634;SDS011;8431;52.458;9.998;2023-05-02T23:43:52;4.97;;;4.55;;
16634;SDS011;8431;52.458;9.998;2023-05-02T23:46:19;5.07;;;4.68;;
16634;SDS011;8431;52.458;9.998;2023-05-02T23:48:46;4.45;;;4.07;;
16634;SDS011;8431;52.458;9.998;2023-05-02T23:51:14;4.50;;;4.18;;
16634;SDS011;8431;52.458;9.998;2023-05-02T23:53:41;5.32;;;4.55;;
16634;SDS011;8431;52.458;9.998;2023-05-02T23:56:08;7.75;;;4.70;;
16634;SDS011;8431;52.458;9.998;2023-05-02T23:58:35;5.70;;;5.20;;
